Time;durP1;ratioP1;P1;durP2;ratioP2;P2;SDS_P1;SDS_P2;PMS_P1;PMS_P2;Temp;Humidity;BMP_temperature;BMP_pressure;BME280_temperature;BME280_humidity;BME280_pressure;Samples;Min_cycle;Max_cycle;Signal;HPM_P1;HPM_P2
2022/09/15 00:00:59;;;;;;;4.3;1.7;;;;;;;17.48;98.50586;930.7997;;;;
2022/09/15 00:03:27;;;;;;;1.6;1.5;;;;;;;17.42;98.88379;930.7869;;;;
2022/09/15 00:05:51;;;;;;;3.7;1.5;;;;;;;17.45;98.85938;930.7031;;;;
2022/09/15 00:08:19;;;;;;;1.6;1.5;;;;;;;17.44;98.72559;930.657;;;;
2022/09/15 00:10:44;;;;;;;3.2;1.7;;;;;;;17.47;98.45508;930.5795;;;;
2022/09/15 00:13:14;;;;;;;3;1.8;;;;;;;17.45;98.4043;930.659;;;;
2022/09/15 00:15:40;;;;;;;3.7;2;;;;;;;17.51;98.02246;930.6727;;;;
2022/09/15 00:18:07;;;;;;;3;1.2;;;;;;;17.45;96.51367;930.693;;;;
2022/09/15 00:20:32;;;;;;;2.6;1.6;;;;;;;17.54;96.60352;930.6451;;;;
2022/09/15 00:23:00;;;;;;;2.2;1.5;;;;;;;17.57;96.62109;930.6016;;;;
2022/09/15 00:25:25;;;;;;;4.1;1.7;;;;;;;17.52;96.87598;930.6241;;;;
2022/09/15 00:27:53;;;;;;;2;1.5;;;;;;;17.52;96.94727;930.6602;;;;
2022/09/15 00:30:18;;;;;;;3.6;2.1;;;;;;;17.4;97.8125;930.616;;;;
2022/09/15 00:32:43;;;;;;;2.6;1.7;;;;;;;17.39;98.44824;930.5173;;;;
2022/09/15 00:35:45;;;;;;;1.5;1.4;;;;;;;17.22;99.14258;930.6002;;;;
2022/09/15 00:38:09;;;;;;;2.3;1.6;;;;;;;17.08;99.99023;930.538;;;;
2022/09/15 00:40:34;;;;;;;1.8;1.4;;;;;;;16.87;100;930.4644;;;;
2022/09/15 00:43:02;;;;;;;3.4;1.8;;;;;;;16.92;100;930.5106;;;;
2022/09/15 00:45:28;;;;;;;3.9;2;;;;;;;16.85;100;930.5197;;;;
2022/09/15 00:47:53;;;;;;;2.9;1.8;;;;;;;16.94;100;930.4827;;;;
2022/09/15 00:50:19;;;;;;;2.7;1.8;;;;;;;16.92;100;930.5034;;;;
2022/09/15 00:52:44;;;;;;;2.8;1.7;;;;;;;16.98;100;930.5067;;;;
2022/09/15 00:55:15;;;;;;;3.7;2.5;;;;;;;17.01;100;930.6013;;;;
2022/09/15 00:57:40;;;;;;;3.5;2.3;;;;;;;17;100;930.5422;;;;
2022/09/15 01:00:05;;;;;;;4.5;1.7;;;;;;;16.98;100;930.5067;;;;
2022/09/15 01:02:31;;;;;;;3;1.7;;;;;;;17.05;100;930.4944;;;;
2022/09/15 01:04:55;;;;;;;2.4;1.9;;;;;;;17.16;100;930.5573;;;;
2022/09/15 01:07:20;;;;;;;2.7;1.7;;;;;;;17.26;99.35938;930.5564;;;;
2022/09/15 01:09:46;;;;;;;1.6;1.5;;;;;;;17.14;98.81055;930.438;;;;
2022/09/15 01:12:11;;;;;;;2.2;1.6;;;;;;;17.14;99.69238;930.3897;;;;
2022/09/15 01:14:36;;;;;;;2.5;1.5;;;;;;;17.11;99.38477;930.4791;;;;
2022/09/15 01:17:05;;;;;;;2;1.3;;;;;;;17.23;99.12109;930.4286;;;;
2022/09/15 01:19:32;;;;;;;1.9;1.6;;;;;;;17.29;98.01074;930.4428;;;;
2022/09/15 01:22:00;;;;;;;3;1.4;;;;;;;17.3;97.8252;930.4339;;;;
2022/09/15 01:24:26;;;;;;;2.5;1.5;;;;;;;17.35;98.12695;930.4016;;;;
2022/09/15 01:26:52;;;;;;;2;1.5;;;;;;;17.39;97.98438;930.4197;;;;
2022/09/15 01:29:17;;;;;;;3.4;1.4;;;;;;;17.37;98.23535;930.3536;;;;
2022/09/15 01:33:02;;;;;;;1.6;1.5;;;;;;;17.25;98.39258;930.3178;;;;
2022/09/15 01:34:10;;;;;;;2.2;1.3;;;;;;;17.11;98.58301;930.2845;;;;
2022/09/15 01:36:35;;;;;;;2.2;1.4;;;;;;;17.17;98.2373;930.2272;;;;
2022/09/15 01:39:03;;;;;;;1.8;1.4;;;;;;;17.1;98.94238;930.2508;;;;
2022/09/15 01:41:30;;;;;;;2.7;1.5;;;;;;;16.98;98.18359;930.2773;;;;
2022/09/15 01:43:55;;;;;;;2.7;1.5;;;;;;;16.98;99.14551;930.1728;;;;
2022/09/15 01:46:20;;;;;;;2.5;1.6;;;;;;;16.96;99.17383;930.258;;;;
2022/09/15 01:48:45;;;;;;;1.7;1.3;;;;;;;17.03;99.07422;930.3222;;;;
2022/09/15 01:51:13;;;;;;;2.1;1.5;;;;;;;17.1;99.12695;930.345;;;;
2022/09/15 01:53:39;;;;;;;2.4;1.4;;;;;;;17.09;98.69434;930.2037;;;;
2022/09/15 01:56:05;;;;;;;2;1.4;;;;;;;17.08;98.14746;930.2442;;;;
2022/09/15 01:58:30;;;;;;;1.6;1.3;;;;;;;17.07;98.2959;930.3201;;;;
2022/09/15 02:00:59;;;;;;;3.1;1.6;;;;;;;17.06;98.43359;930.2642;;;;
2022/09/15 02:07:18;;;;;;;1.8;1.5;;;;;;;17.12;98.11133;930.2422;;;;
2022/09/15 02:10:37;;;;;;;1.4;1.3;;;;;;;17.23;98.36523;930.1865;;;;
2022/09/15 02:13:03;;;;;;;2.7;1.6;;;;;;;17.11;98.57324;930.0559;;;;
2022/09/15 02:19:20;;;;;;;2.7;1.6;;;;;;;17.06;99.28906;929.9892;;;;
2022/09/15 02:21:52;;;;;;;2.8;1.5;;;;;;;16.98;99.19141;930.0344;;;;
2022/09/15 02:24:13;;;;;;;2;1.5;;;;;;;17.02;99.02637;929.8895;;;;
2022/09/15 02:26:38;;;;;;;2;1.6;;;;;;;17.06;99.53418;930.0566;;;;
2022/09/15 02:29:04;;;;;;;1.7;1.4;;;;;;;17.04;99.46094;929.9205;;;;
2022/09/15 02:31:31;;;;;;;2;1.5;;;;;;;17.08;98.30957;929.8566;;;;
2022/09/15 02:33:56;;;;;;;2.7;1.7;;;;;;;17.17;97.28906;929.9254;;;;
2022/09/15 02:36:23;;;;;;;1.6;1.1;;;;;;;17.24;97.0127;929.9406;;;;
2022/09/15 02:38:48;;;;;;;1.6;1.1;;;;;;;17.27;97.0752;929.8312;;;;
2022/09/15 02:41:16;;;;;;;2.5;1.4;;;;;;;17.27;96.11621;929.8608;;;;
2022/09/15 02:43:42;;;;;;;1.4;1.3;;;;;;;17.28;96.45313;929.8389;;;;
2022/09/15 02:46:07;;;;;;;1.7;1.3;;;;;;;17.29;96.16309;929.8339;;;;
2022/09/15 02:48:34;;;;;;;3.6;1.5;;;;;;;17.1;97.29395;929.9044;;;;
2022/09/15 02:50:59;;;;;;;1.5;1.4;;;;;;;16.99;98.06934;929.8853;;;;
2022/09/15 02:53:24;;;;;;;1.6;1.4;;;;;;;16.64;100;929.8254;;;;
2022/09/15 02:55:49;;;;;;;3.3;1.7;;;;;;;16.82;100;929.8683;;;;
2022/09/15 02:58:15;;;;;;;2.7;1.7;;;;;;;16.75;100;929.8348;;;;
2022/09/15 03:00:41;;;;;;;1.9;1.7;;;;;;;16.85;100;929.8603;;;;
2022/09/15 03:03:07;;;;;;;3.7;1.8;;;;;;;16.97;99.9873;929.8233;;;;
2022/09/15 03:05:32;;;;;;;3.7;1.8;;;;;;;17.06;99.03418;929.8918;;;;
2022/09/15 03:08:02;;;;;;;5.5;2.4;;;;;;;17.07;98.7832;929.7821;;;;
2022/09/15 03:10:27;;;;;;;1.8;1.7;;;;;;;17.1;98.79102;929.8656;;;;
2022/09/15 03:12:53;;;;;;;4.1;1.9;;;;;;;17.21;98.38477;929.8262;;;;
2022/09/15 03:15:18;;;;;;;2.6;1.7;;;;;;;17.09;98.08203;929.7025;;;;
2022/09/15 03:17:43;;;;;;;2.5;1.6;;;;;;;17.02;98.92383;929.7971;;;;
2022/09/15 03:20:18;;;;;;;2.5;1.6;;;;;;;16.87;100;929.6878;;;;
2022/09/15 03:22:44;;;;;;;3.1;1.9;;;;;;;16.78;100;929.6609;;;;
2022/09/15 03:25:32;;;;;;;2.8;1.4;;;;;;;16.63;100;929.702;;;;
2022/09/15 03:27:57;;;;;;;2.4;1.7;;;;;;;16.74;100;929.61;;;;
2022/09/15 03:30:25;;;;;;;1.8;1.3;;;;;;;16.81;100;929.6258;;;;
2022/09/15 03:32:50;;;;;;;2.5;1.5;;;;;;;16.86;100;929.6013;;;;
2022/09/15 03:35:20;;;;;;;1.4;1.3;;;;;;;16.81;99.97363;929.6065;;;;
2022/09/15 03:37:45;;;;;;;2.7;1.5;;;;;;;16.67;99.36523;929.4944;;;;
2022/09/15 03:40:19;;;;;;;1.8;1.6;;;;;;;16.68;99.82813;929.4606;;;;
2022/09/15 03:42:48;;;;;;;1.9;1.2;;;;;;;16.84;99.11426;929.535;;;;
2022/09/15 03:46:16;;;;;;;1.6;1.3;;;;;;;16.74;99.21973;929.5328;;;;
2022/09/15 03:48:39;;;;;;;2.8;1.3;;;;;;;16.9;98.57031;929.5316;;;;
2022/09/15 03:51:09;;;;;;;2.4;1.5;;;;;;;16.95;98.38574;929.4594;;;;
2022/09/15 03:53:33;;;;;;;2.3;1.4;;;;;;;17.01;97.7959;929.5366;;;;
2022/09/15 03:56:01;;;;;;;2.1;1.1;;;;;;;17.01;96.92676;929.4956;;;;
2022/09/15 03:58:26;;;;;;;2.1;1.3;;;;;;;17.04;97.01563;929.519;;;;
2022/09/15 04:01:09;;;;;;;1.6;1.5;;;;;;;17.09;97.17773;929.532;;;;
2022/09/15 04:03:38;;;;;;;2.1;1.4;;;;;;;17.12;97.19336;929.5659;;;;
2022/09/15 04:06:03;;;;;;;6.2;1.4;;;;;;;17.08;97.6377;929.6448;;;;
2022/09/15 04:08:28;;;;;;;3.7;1.3;;;;;;;17.08;97.89258;929.7028;;;;
2022/09/15 04:10:53;;;;;;;2.3;1.6;;;;;;;17.1;97.72461;929.7176;;;;
2022/09/15 04:13:21;;;;;;;1.3;1.1;;;;;;;17.1;97.20117;929.6766;;;;
2022/09/15 04:15:51;;;;;;;3.3;1.5;;;;;;;17.11;96.96191;929.6408;;;;
2022/09/15 04:18:18;;;;;;;2.6;1.3;;;;;;;17.04;96.56152;929.6028;;;;
2022/09/15 04:20:47;;;;;;;2.8;1.5;;;;;;;17.07;96.87109;929.7242;;;;
2022/09/15 04:28:05;;;;;;;2.9;1.7;;;;;;;16.99;97.96777;929.6641;;;;
2022/09/15 04:30:30;;;;;;;2.3;1.4;;;;;;;16.92;98.94531;929.6373;;;;
2022/09/15 04:32:58;;;;;;;2.6;1.6;;;;;;;16.98;98.7627;929.6147;;;;
2022/09/15 04:35:23;;;;;;;3.2;1.9;;;;;;;16.97;99.17578;929.6545;;;;
2022/09/15 04:37:52;;;;;;;1.9;1.7;;;;;;;16.78;100;929.5895;;;;
2022/09/15 04:40:24;;;;;;;1.5;1.4;;;;;;;16.8;100;929.6202;;;;
2022/09/15 04:42:56;;;;;;;2.7;1.4;;;;;;;16.71;100;929.7553;;;;
2022/09/15 04:45:26;;;;;;;2.2;1.2;;;;;;;16.77;99.61719;929.7475;;;;
2022/09/15 04:47:50;;;;;;;1.7;1.2;;;;;;;16.78;99.11035;929.736;;;;
2022/09/15 04:50:21;;;;;;;1.8;1.4;;;;;;;16.82;99.20313;929.7823;;;;
2022/09/15 04:52:50;;;;;;;1.5;1.3;;;;;;;16.83;98.86914;929.7773;;;;
2022/09/15 04:55:15;;;;;;;1.4;1.3;;;;;;;16.87;98.42578;929.8229;;;;
2022/09/15 04:57:41;;;;;;;2.3;1.3;;;;;;;16.89;98.03613;929.8729;;;;
2022/09/15 05:00:15;;;;;;;2;1.6;;;;;;;16.86;97.97168;929.8561;;;;
2022/09/15 05:06:22;;;;;;;3;1.1;;;;;;;16.82;97.94043;929.9303;;;;
2022/09/15 05:08:38;;;;;;;1.8;1.6;;;;;;;16.69;98.96387;929.9796;;;;
2022/09/15 05:11:03;;;;;;;2.3;1.6;;;;;;;16.72;99.42188;929.8572;;;;
2022/09/15 05:13:28;;;;;;;2.5;1.9;;;;;;;16.69;99.86719;929.8422;;;;
2022/09/15 05:16:03;;;;;;;2.2;1.6;;;;;;;16.62;100;929.883;;;;
2022/09/15 05:18:31;;;;;;;2.4;1.7;;;;;;;16.65;100;929.9089;;;;
2022/09/15 05:20:56;;;;;;;3.1;1.3;;;;;;;16.64;100;929.8784;;;;
2022/09/15 05:23:23;;;;;;;2.2;1.4;;;;;;;16.46;100;929.842;;;;
2022/09/15 05:25:48;;;;;;;1.4;1.2;;;;;;;16.39;98.76758;929.8124;;;;
2022/09/15 05:28:13;;;;;;;2.5;1.9;;;;;;;16.48;100;929.8062;;;;
2022/09/15 05:30:41;;;;;;;3.1;1.8;;;;;;;16.56;99.6748;929.8049;;;;
2022/09/15 05:33:09;;;;;;;1.9;1.7;;;;;;;16.62;99.73535;929.8502;;;;
2022/09/15 05:35:39;;;;;;;3.3;2;;;;;;;16.75;99.48633;929.8237;;;;
2022/09/15 05:40:54;;;;;;;4.9;2.6;;;;;;;16.91;99.45313;929.9375;;;;
2022/09/15 05:43:23;;;;;;;4.4;2.8;;;;;;;16.87;99.31738;930.0014;;;;
2022/09/15 05:45:48;;;;;;;4;2.6;;;;;;;16.89;98.73047;929.8979;;;;
2022/09/15 05:48:15;;;;;;;5;2.7;;;;;;;16.96;98.7334;929.9105;;;;
2022/09/15 05:50:40;;;;;;;2.9;2;;;;;;;17.02;97.92676;929.9096;;;;
2022/09/15 05:53:08;;;;;;;4.9;2;;;;;;;17.12;97.41406;929.9222;;;;
2022/09/15 05:55:33;;;;;;;3;1.8;;;;;;;17.15;97.10938;929.9196;;;;
2022/09/15 05:58:02;;;;;;;2.3;1.6;;;;;;;17.2;97.20215;929.9456;;;;
2022/09/15 06:00:27;;;;;;;3;1.6;;;;;;;17.17;98.2373;929.986;;;;
2022/09/15 06:05:57;;;;;;;3.7;1.9;;;;;;;17.06;98.0625;930.0374;;;;
2022/09/15 06:08:24;;;;;;;2.5;1.8;;;;;;;17.09;98.04785;930.0403;;;;
2022/09/15 06:10:49;;;;;;;1.9;1.4;;;;;;;17.15;97.79297;929.9903;;;;
2022/09/15 06:13:18;;;;;;;2.5;1.4;;;;;;;17.3;97.54883;929.9951;;;;
2022/09/15 06:15:43;;;;;;;1.4;1.3;;;;;;;17.43;96.75293;929.9892;;;;
2022/09/15 06:18:08;;;;;;;2.1;1.4;;;;;;;17.63;96.0332;930.0597;;;;
2022/09/15 06:20:34;;;;;;;1.4;1.3;;;;;;;17.76;95.10645;929.9403;;;;
2022/09/15 06:22:59;;;;;;;2.7;1.7;;;;;;;17.91;94.83984;929.9211;;;;
2022/09/15 06:25:26;;;;;;;2.3;1.6;;;;;;;17.72;92.9502;929.9158;;;;
2022/09/15 06:27:51;;;;;;;6.6;2.2;;;;;;;17.74;94.05859;929.9916;;;;
2022/09/15 06:30:20;;;;;;;1.6;1.5;;;;;;;17.88;94.90039;929.9931;;;;
2022/09/15 06:32:48;;;;;;;3;1.8;;;;;;;17.82;94.45898;929.9738;;;;
2022/09/15 06:35:14;;;;;;;3;1.9;;;;;;;17.96;93.65137;929.973;;;;
2022/09/15 06:37:41;;;;;;;2.5;1.6;;;;;;;18.16;92.4043;930.0449;;;;
2022/09/15 06:40:06;;;;;;;2.1;1.5;;;;;;;18.38;90.3125;930.0383;;;;
2022/09/15 06:42:34;;;;;;;2.4;1.5;;;;;;;18.53;89.36719;930.0609;;;;
2022/09/15 06:45:00;;;;;;;2.6;2;;;;;;;18.62;90.19824;930.1055;;;;
2022/09/15 06:47:32;;;;;;;3.8;2.3;;;;;;;18.79;89.87207;930.0325;;;;
2022/09/15 06:49:54;;;;;;;1.8;1.5;;;;;;;18.93;88.74023;930.0471;;;;
2022/09/15 06:52:21;;;;;;;2.2;1.7;;;;;;;19.05;88.99414;929.9947;;;;
2022/09/15 06:54:46;;;;;;;2.4;1.5;;;;;;;19.15;88.69043;929.9222;;;;
2022/09/15 06:57:12;;;;;;;1.1;1;;;;;;;19.24;87.12402;929.9419;;;;
2022/09/15 06:59:37;;;;;;;1.9;1.3;;;;;;;19.11;88.05273;930.002;;;;
2022/09/15 07:02:07;;;;;;;2.6;1.4;;;;;;;18.86;88.16504;930.0433;;;;
2022/09/15 07:04:37;;;;;;;1.5;1.3;;;;;;;18.67;88.31348;930.0076;;;;
2022/09/15 07:07:02;;;;;;;1.3;1.1;;;;;;;18.71;89.2627;929.9902;;;;
2022/09/15 07:09:28;;;;;;;2.1;1.5;;;;;;;18.78;89.88379;929.9576;;;;
2022/09/15 07:11:53;;;;;;;1.6;1.2;;;;;;;18.87;89.0625;929.9136;;;;
2022/09/15 07:14:22;;;;;;;1.6;1.3;;;;;;;18.87;88.94629;930.0139;;;;
2022/09/15 07:16:47;;;;;;;4;1.6;;;;;;;18.85;89.50098;929.9556;;;;
2022/09/15 07:19:14;;;;;;;1.5;1.2;;;;;;;19.02;89.90723;929.8488;;;;
2022/09/15 07:21:39;;;;;;;1.5;1;;;;;;;19.25;88.03418;929.9034;;;;
2022/09/15 07:24:07;;;;;;;2.6;1.4;;;;;;;19.31;87.06738;929.9023;;;;
2022/09/15 07:26:32;;;;;;;2.4;1.2;;;;;;;19.45;85.4043;929.8884;;;;
2022/09/15 07:30:07;;;;;;;2.5;1;;;;;;;19.79;82.05371;929.8975;;;;
2022/09/15 07:32:28;;;;;;;1.2;1;;;;;;;20.19;79.53613;929.9436;;;;
2022/09/15 07:34:53;;;;;;;1.6;0.9;;;;;;;20.32;77.49316;929.8752;;;;
2022/09/15 07:37:20;;;;;;;1;0.9;;;;;;;20.43;76.40332;929.937;;;;
2022/09/15 07:39:45;;;;;;;1;0.9;;;;;;;20.61;75.88379;929.9278;;;;
2022/09/15 07:42:15;;;;;;;1.2;0.9;;;;;;;20.82;74.63672;929.9394;;;;
2022/09/15 07:44:40;;;;;;;2.7;1;;;;;;;21.61;73.80762;929.9233;;;;
2022/09/15 07:47:07;;;;;;;0.9;0.9;;;;;;;22.83;67.54199;929.8814;;;;
2022/09/15 07:49:33;;;;;;;3.3;1;;;;;;;23.37;65.08398;929.8879;;;;
2022/09/15 07:51:59;;;;;;;1.6;0.8;;;;;;;23.16;66.01758;929.9539;;;;
2022/09/15 07:54:24;;;;;;;2;0.8;;;;;;;22.63;65.71582;930.0064;;;;
2022/09/15 07:56:52;;;;;;;1.5;0.9;;;;;;;22.8;63.91992;929.9728;;;;
2022/09/15 07:59:17;;;;;;;0.8;0.7;;;;;;;23.32;63.54785;929.9286;;;;
2022/09/15 08:01:45;;;;;;;1.6;0.6;;;;;;;23.02;62.73047;929.8749;;;;
2022/09/15 08:04:10;;;;;;;2;0.9;;;;;;;23.69;61.60059;929.8975;;;;
2022/09/15 08:06:35;;;;;;;1;0.9;;;;;;;23.06;64.7207;929.8116;;;;
2022/09/15 08:09:00;;;;;;;1.4;0.8;;;;;;;22.84;68.72754;929.9113;;;;
2022/09/15 08:11:25;;;;;;;1.1;1;;;;;;;22.82;67.38574;929.8828;;;;
2022/09/15 08:13:53;;;;;;;1.5;0.9;;;;;;;22.45;70.20605;929.9163;;;;
2022/09/15 08:16:27;;;;;;;0.9;0.9;;;;;;;21.96;71.28711;929.9031;;;;
2022/09/15 08:18:51;;;;;;;1.4;1.1;;;;;;;22.09;72.28223;929.9275;;;;
2022/09/15 08:21:21;;;;;;;2.4;0.9;;;;;;;21.68;72.64844;929.9916;;;;
2022/09/15 08:23:51;;;;;;;2;1;;;;;;;21.34;72.66309;930.0258;;;;
2022/09/15 08:26:16;;;;;;;0.9;0.8;;;;;;;21.04;74.60156;930.0712;;;;
2022/09/15 08:28:42;;;;;;;1;0.9;;;;;;;20.79;75.09766;930.0652;;;;
2022/09/15 08:31:07;;;;;;;1.6;0.9;;;;;;;20.75;76.36621;930.0334;;;;
2022/09/15 08:33:33;;;;;;;1.7;0.8;;;;;;;20.57;77.71289;929.985;;;;
2022/09/15 08:35:58;;;;;;;1.4;0.9;;;;;;;20.44;80.23535;930.0086;;;;
2022/09/15 08:38:26;;;;;;;2.2;0.9;;;;;;;20.08;80.41504;929.9967;;;;
2022/09/15 08:40:51;;;;;;;1.5;1.2;;;;;;;20.17;81.13184;929.9031;;;;
2022/09/15 08:43:16;;;;;;;1.6;1.1;;;;;;;20.21;82.78613;929.9465;;;;
2022/09/15 08:45:41;;;;;;;1.9;1;;;;;;;20.4;79.10742;930.0709;;;;
2022/09/15 08:48:07;;;;;;;2.4;1.2;;;;;;;20.53;78.99023;930.1074;;;;
2022/09/15 08:50:32;;;;;;;1.5;1.1;;;;;;;20.72;76.18457;930.1102;;;;
2022/09/15 08:52:57;;;;;;;2.3;0.9;;;;;;;20.87;75.62598;930.1187;;;;
2022/09/15 08:55:22;;;;;;;1.7;1.1;;;;;;;20.95;77.9082;930.2583;;;;
2022/09/15 08:57:50;;;;;;;1.2;1.1;;;;;;;21.01;76.80664;930.1892;;;;
2022/09/15 09:00:16;;;;;;;1.4;1.1;;;;;;;20.94;76.49219;930.1494;;;;
2022/09/15 09:02:40;;;;;;;1.1;1;;;;;;;20.64;77.67871;930.0722;;;;
2022/09/15 09:05:11;;;;;;;1;0.9;;;;;;;20.47;77.71777;930.0785;;;;
2022/09/15 09:07:36;;;;;;;1.1;1;;;;;;;20.69;78.52832;930.0296;;;;
2022/09/15 09:10:05;;;;;;;0.8;0.8;;;;;;;21.27;74.65234;930.0193;;;;
2022/09/15 09:12:34;;;;;;;3.1;1.1;;;;;;;21.86;73.91992;929.9995;;;;
2022/09/15 09:14:59;;;;;;;0.8;0.8;;;;;;;22.05;70.31738;929.9163;;;;
2022/09/15 09:17:28;;;;;;;2.4;0.9;;;;;;;22.18;68.86035;929.9743;;;;
2022/09/15 09:19:56;;;;;;;1.7;0.9;;;;;;;22.3;69.11426;930.0157;;;;
2022/09/15 09:22:26;;;;;;;1.1;1.1;;;;;;;21.97;68.40723;929.926;;;;
2022/09/15 09:24:51;;;;;;;1.3;0.9;;;;;;;22.55;69.11719;929.8228;;;;
2022/09/15 09:27:20;;;;;;;1.6;1;;;;;;;23.52;65.9873;929.7155;;;;
2022/09/15 09:29:48;;;;;;;1.4;0.8;;;;;;;24.4;61.79297;929.6964;;;;
2022/09/15 09:32:10;;;;;;;1.4;1;;;;;;;24.38;65.63184;929.6269;;;;
2022/09/15 09:34:38;;;;;;;1.2;0.9;;;;;;;24.47;64.20703;929.6281;;;;
2022/09/15 09:37:03;;;;;;;1.7;0.9;;;;;;;25.58;59.03809;929.6889;;;;
2022/09/15 09:39:29;;;;;;;2.4;1;;;;;;;24.67;60.02637;929.6839;;;;
2022/09/15 09:41:54;;;;;;;1.3;0.8;;;;;;;24.7;63.19043;929.5339;;;;
2022/09/15 09:44:20;;;;;;;1;0.7;;;;;;;24.71;59.06641;929.5662;;;;
2022/09/15 09:46:49;;;;;;;1.2;1.1;;;;;;;24.59;58.47266;929.5529;;;;
2022/09/15 09:49:16;;;;;;;1.7;0.9;;;;;;;24.21;64.06445;929.5673;;;;
2022/09/15 09:51:45;;;;;;;1.8;1.2;;;;;;;23.35;62.10645;929.5844;;;;
2022/09/15 09:54:10;;;;;;;1.1;1;;;;;;;23.19;62.2373;929.5383;;;;
2022/09/15 09:56:36;;;;;;;4.1;1.4;;;;;;;23.26;65.0332;929.5803;;;;
2022/09/15 09:59:02;;;;;;;1.2;1;;;;;;;23.45;65.71777;929.4688;;;;
2022/09/15 10:01:30;;;;;;;1.5;1.1;;;;;;;23.76;61.99805;929.4581;;;;
2022/09/15 10:03:55;;;;;;;1.3;1;;;;;;;23.44;62.60059;929.5508;;;;
2022/09/15 10:06:22;;;;;;;1.8;0.9;;;;;;;23.34;62.1416;929.5652;;;;
2022/09/15 10:08:47;;;;;;;2;1.1;;;;;;;23.27;66.05566;929.6766;;;;
2022/09/15 10:11:15;;;;;;;1.8;1.1;;;;;;;23.06;63.52246;929.6516;;;;
2022/09/15 10:13:40;;;;;;;1.2;1;;;;;;;22.67;66.37793;929.7877;;;;
2022/09/15 10:16:12;;;;;;;1.3;1.1;;;;;;;23.05;67.8916;929.7902;;;;
2022/09/15 10:18:40;;;;;;;3.1;1.1;;;;;;;22.89;71.14355;929.5385;;;;
2022/09/15 10:21:05;;;;;;;1.5;1.1;;;;;;;22.66;70.16797;929.4919;;;;
2022/09/15 10:23:30;;;;;;;4.8;2.6;;;;;;;22.69;68.7168;929.5101;;;;
2022/09/15 10:26:35;;;;;;;2;1.5;;;;;;;23.64;68.39453;929.5059;;;;
2022/09/15 10:29:00;;;;;;;2.7;1.4;;;;;;;23.39;63.44141;929.4402;;;;
2022/09/15 10:31:25;;;;;;;2.1;1.1;;;;;;;23.6;65.3291;929.3908;;;;
2022/09/15 10:33:51;;;;;;;1.4;1;;;;;;;23.67;63.20996;929.298;;;;
2022/09/15 10:36:16;;;;;;;1.8;1;;;;;;;23.58;63.00977;929.2489;;;;
2022/09/15 10:38:42;;;;;;;1.3;1;;;;;;;23.72;60.45313;929.2416;;;;
2022/09/15 10:41:09;;;;;;;2.3;1.2;;;;;;;23.71;68.76758;929.2684;;;;
2022/09/15 10:43:39;;;;;;;1.3;0.8;;;;;;;24.3;69.88379;929.2996;;;;
2022/09/15 10:46:08;;;;;;;1.9;1.2;;;;;;;25.25;64.95703;929.3494;;;;
2022/09/15 10:48:33;;;;;;;0.9;0.9;;;;;;;25.5;56.83008;929.2391;;;;
2022/09/15 10:50:59;;;;;;;1.6;1;;;;;;;24.88;54.99512;929.1802;;;;
2022/09/15 10:53:29;;;;;;;2;1.1;;;;;;;24.99;54.71289;929.1476;;;;
2022/09/15 10:55:54;;;;;;;1;0.9;;;;;;;25.14;57.12695;929.1497;;;;
2022/09/15 10:58:19;;;;;;;1.6;1;;;;;;;25.05;58.56836;929.126;;;;
2022/09/15 11:00:44;;;;;;;2.3;1.1;;;;;;;25.06;56.44336;929.2486;;;;
2022/09/15 11:03:10;;;;;;;1.3;1;;;;;;;24.86;56.27734;929.1623;;;;
2022/09/15 11:05:35;;;;;;;2.4;1.2;;;;;;;24.49;58.30566;929.176;;;;
2022/09/15 11:08:03;;;;;;;1.3;0.9;;;;;;;24.22;60.16602;929.2067;;;;
2022/09/15 11:10:28;;;;;;;2.5;1.1;;;;;;;23.96;58.4248;929.1013;;;;
2022/09/15 11:12:53;;;;;;;1.5;1.1;;;;;;;23.27;60.12012;929.1417;;;;
2022/09/15 11:15:22;;;;;;;1.6;1;;;;;;;23.72;60.0293;929.0764;;;;
2022/09/15 11:17:47;;;;;;;1.1;1;;;;;;;23.44;61.22656;929.0776;;;;
2022/09/15 11:20:21;;;;;;;1.1;1;;;;;;;23.56;59.41797;929.0452;;;;
2022/09/15 11:22:51;;;;;;;1.4;1;;;;;;;23.44;60.17969;928.9434;;;;
2022/09/15 11:25:18;;;;;;;1;0.9;;;;;;;23.97;59.33203;928.9277;;;;
2022/09/15 11:27:43;;;;;;;1.2;0.8;;;;;;;24.08;56.96973;928.9615;;;;
2022/09/15 11:30:08;;;;;;;3.4;1;;;;;;;24.55;55.53125;928.9829;;;;
2022/09/15 11:32:35;;;;;;;1.3;1.2;;;;;;;24.84;55.70996;928.9709;;;;
2022/09/15 11:35:00;;;;;;;1.7;1;;;;;;;25.23;54.41211;928.9124;;;;
2022/09/15 11:37:29;;;;;;;1.6;1.1;;;;;;;25.33;54.68457;928.887;;;;
2022/09/15 11:39:55;;;;;;;1.4;1.1;;;;;;;25.94;50.95117;928.9182;;;;
2022/09/15 11:42:20;;;;;;;2.3;1;;;;;;;26.18;49.80664;928.8457;;;;
2022/09/15 11:44:45;;;;;;;1.8;0.9;;;;;;;26.1;50.67383;928.7957;;;;
2022/09/15 11:47:10;;;;;;;1.6;0.9;;;;;;;26.1;50.29492;928.8478;;;;
2022/09/15 11:49:39;;;;;;;1.6;1;;;;;;;26.27;50.70508;928.8285;;;;
2022/09/15 11:52:04;;;;;;;1.9;0.9;;;;;;;25.21;52.47266;928.8458;;;;
2022/09/15 11:54:33;;;;;;;1.1;1;;;;;;;25.66;51.76953;928.8403;;;;
2022/09/15 11:56:58;;;;;;;2.8;1.1;;;;;;;25.63;52.49902;928.7709;;;;
2022/09/15 11:59:25;;;;;;;1.2;1.1;;;;;;;24.57;54.91992;928.8247;;;;
2022/09/15 12:01:49;;;;;;;1.5;1.1;;;;;;;24.18;56.32227;928.7402;;;;
2022/09/15 12:04:15;;;;;;;1.5;1.1;;;;;;;24.4;58.0459;928.697;;;;
2022/09/15 12:06:40;;;;;;;0.8;0.8;;;;;;;24.2;56.88867;928.7605;;;;
2022/09/15 12:09:05;;;;;;;2;1;;;;;;;24.64;54.50586;928.8175;;;;
2022/09/15 12:11:31;;;;;;;2.8;0.9;;;;;;;24.84;53.87988;928.867;;;;
2022/09/15 12:13:56;;;;;;;1.4;1.1;;;;;;;24.88;53.69629;928.7969;;;;
2022/09/15 12:16:23;;;;;;;1.3;1;;;;;;;24.32;56.16211;928.7727;;;;
2022/09/15 12:18:48;;;;;;;1.3;1;;;;;;;24.33;55.52734;928.7662;;;;
2022/09/15 12:21:14;;;;;;;0.9;0.8;;;;;;;24.2;55.11133;928.782;;;;
2022/09/15 12:23:40;;;;;;;2.1;0.9;;;;;;;24.11;53.7334;928.7547;;;;
2022/09/15 12:26:05;;;;;;;1.4;1;;;;;;;24.19;55.59375;928.7434;;;;
2022/09/15 12:28:33;;;;;;;1.5;1;;;;;;;24.55;53.2207;928.7338;;;;
2022/09/15 12:31:03;;;;;;;2.4;0.9;;;;;;;24.92;52.59375;928.7689;;;;
2022/09/15 12:33:31;;;;;;;1.1;0.9;;;;;;;25.95;49.93457;928.7523;;;;
2022/09/15 12:35:58;;;;;;;1.3;1.1;;;;;;;25.78;51.5127;928.7639;;;;
2022/09/15 12:38:24;;;;;;;2.4;1.3;;;;;;;25.89;50.92188;928.848;;;;
2022/09/15 12:40:53;;;;;;;1.1;1;;;;;;;25.8;50.37988;928.8745;;;;
2022/09/15 12:43:19;;;;;;;1.3;1;;;;;;;25.54;48.48242;928.8784;;;;
2022/09/15 12:45:48;;;;;;;2.3;1;;;;;;;25.22;52.07227;928.9022;;;;
2022/09/15 12:48:13;;;;;;;1.5;1;;;;;;;25.29;51.43262;928.9816;;;;
2022/09/15 12:50:38;;;;;;;1.5;1.1;;;;;;;25.01;53.06348;928.9747;;;;
2022/09/15 12:53:03;;;;;;;1.6;1;;;;;;;24.79;55.1377;928.9858;;;;
2022/09/15 12:55:30;;;;;;;2.5;1.1;;;;;;;24.49;53.68555;928.9416;;;;
2022/09/15 12:57:56;;;;;;;3.2;1.1;;;;;;;24.4;52.10645;929.0219;;;;
2022/09/15 13:00:25;;;;;;;1.3;1.2;;;;;;;24.16;53.75195;928.9285;;;;
2022/09/15 13:02:52;;;;;;;3.9;1.1;;;;;;;23.89;52.87109;928.8997;;;;
2022/09/15 13:05:18;;;;;;;3;1.2;;;;;;;23.9;53.66113;928.9635;;;;
2022/09/15 13:07:42;;;;;;;1.4;1;;;;;;;23.98;55.37793;928.8753;;;;
2022/09/15 13:10:13;;;;;;;3.1;1.3;;;;;;;24.99;51.91797;928.9603;;;;
2022/09/15 13:12:38;;;;;;;2.4;1.3;;;;;;;25.75;48.35254;928.855;;;;
2022/09/15 13:15:03;;;;;;;2.7;1.3;;;;;;;27.07;46.75195;928.9113;;;;
2022/09/15 13:17:28;;;;;;;1.6;0.9;;;;;;;26.81;44.0957;928.759;;;;
2022/09/15 13:19:53;;;;;;;0.8;0.8;;;;;;;25.81;45.47461;928.7522;;;;
2022/09/15 13:22:19;;;;;;;1.8;1;;;;;;;27.4;43.78516;928.8398;;;;
2022/09/15 13:24:44;;;;;;;1.5;1;;;;;;;28.05;45.66699;928.7867;;;;
2022/09/15 13:27:09;;;;;;;2.5;1.2;;;;;;;29.45;40.05273;928.8352;;;;
2022/09/15 13:29:34;;;;;;;1.4;1.2;;;;;;;30.06;38.06641;928.7313;;;;
2022/09/15 13:32:00;;;;;;;1.1;0.8;;;;;;;28.3;38.29785;928.7307;;;;
2022/09/15 13:34:26;;;;;;;1.4;1;;;;;;;26.44;41.65527;928.7477;;;;
2022/09/15 13:37:03;;;;;;;1.2;0.9;;;;;;;25.18;45.0332;928.8128;;;;
2022/09/15 13:39:32;;;;;;;0.9;0.7;;;;;;;24.51;44.24707;928.7453;;;;
2022/09/15 13:41:57;;;;;;;1.1;0.8;;;;;;;24.15;46.76563;928.7617;;;;
2022/09/15 13:44:23;;;;;;;1.2;1;;;;;;;24.11;46.37305;928.675;;;;
2022/09/15 13:46:51;;;;;;;1.4;1.3;;;;;;;23.89;49.37695;928.7313;;;;
2022/09/15 13:49:16;;;;;;;1.6;1;;;;;;;23.79;50.01172;928.7045;;;;
2022/09/15 13:51:44;;;;;;;2.1;1.8;;;;;;;23.1;53.37598;928.8349;;;;
2022/09/15 13:54:10;;;;;;;1;0.8;;;;;;;23.04;49.34082;928.76;;;;
2022/09/15 13:56:36;;;;;;;1;0.7;;;;;;;23.21;47.44336;928.7612;;;;
2022/09/15 13:59:01;;;;;;;1.8;0.7;;;;;;;22.97;46.93652;928.7297;;;;
2022/09/15 14:01:26;;;;;;;0.8;0.6;;;;;;;22.91;47.70605;928.6398;;;;
2022/09/15 14:03:53;;;;;;;0.6;0.6;;;;;;;22.72;45.8418;928.6128;;;;
2022/09/15 14:06:19;;;;;;;0.8;0.5;;;;;;;22.76;46.72656;928.6824;;;;
2022/09/15 14:08:47;;;;;;;0.9;0.5;;;;;;;22.73;48.97656;928.6525;;;;
2022/09/15 14:11:13;;;;;;;0.5;0.5;;;;;;;22.73;47.13477;928.7311;;;;
2022/09/15 14:13:39;;;;;;;0.5;0.5;;;;;;;22.67;49.2168;928.6911;;;;
2022/09/15 14:16:04;;;;;;;1.3;0.6;;;;;;;22.66;47.7959;928.7842;;;;
2022/09/15 14:18:29;;;;;;;0.6;0.6;;;;;;;22.67;48.29004;928.7651;;;;
2022/09/15 14:20:58;;;;;;;1;0.7;;;;;;;22.82;47.70801;928.6421;;;;
2022/09/15 14:23:23;;;;;;;0.5;0.5;;;;;;;23.02;49.87793;928.774;;;;
2022/09/15 14:25:52;;;;;;;0.8;0.5;;;;;;;22.96;49.03906;928.803;;;;
2022/09/15 14:28:17;;;;;;;0.6;0.5;;;;;;;22.69;48.25684;928.8225;;;;
2022/09/15 14:30:42;;;;;;;1.1;0.7;;;;;;;22.6;48.5293;928.7187;;;;
2022/09/15 14:33:07;;;;;;;1.2;1.1;;;;;;;22.66;49.76758;928.7258;;;;
2022/09/15 14:35:32;;;;;;;0.7;0.7;;;;;;;22.79;50.28711;928.8367;;;;
2022/09/15 14:37:57;;;;;;;0.8;0.6;;;;;;;22.62;48.64746;928.9802;;;;
2022/09/15 14:40:27;;;;;;;0.5;0.5;;;;;;;22.46;49.5918;928.9152;;;;
2022/09/15 14:42:51;;;;;;;0.9;0.5;;;;;;;22.52;49.92773;928.8335;;;;
2022/09/15 14:45:20;;;;;;;2.8;0.7;;;;;;;22.52;49.65918;928.9331;;;;
2022/09/15 14:47:50;;;;;;;0.6;0.5;;;;;;;22.48;49.86523;928.97;;;;
2022/09/15 14:50:20;;;;;;;2.3;0.6;;;;;;;22.61;49.44531;929.0398;;;;
2022/09/15 14:52:52;;;;;;;0.5;0.4;;;;;;;22.62;48.84766;929.0588;;;;
2022/09/15 14:55:17;;;;;;;0.4;0.4;;;;;;;22.59;49.14941;929.0676;;;;